createdAt,value
2018-08-30T00:00:20.578Z,99858.84
2018-08-30T00:02:49.845Z,99858.89
2018-08-30T00:05:19.085Z,99860.19
2018-08-30T00:07:48.082Z,99863.05
2018-08-30T00:10:17.053Z,99869.46
2018-08-30T00:12:46.216Z,99873.78
2018-08-30T00:15:15.206Z,99871.47
2018-08-30T00:17:44.164Z,99876.92
2018-08-30T00:20:13.269Z,99879.07
2018-08-30T00:22:42.230Z,99882.09
2018-08-30T00:25:11.222Z,99884.45
2018-08-30T00:27:40.202Z,99884.15
2018-08-30T00:30:09.229Z,99885.80
2018-08-30T00:32:38.209Z,99887.34
2018-08-30T00:35:07.281Z,99887.83
2018-08-30T00:37:36.285Z,99895.75
2018-08-30T00:40:05.277Z,99892.78
2018-08-30T00:42:34.339Z,99898.44
2018-08-30T00:45:03.352Z,99903.41
2018-08-30T00:47:32.447Z,99903.41
2018-08-30T00:50:01.483Z,99905.39
2018-08-30T00:52:30.512Z,99905.74
2018-08-30T00:54:59.547Z,99914.77
2018-08-30T00:57:28.563Z,99911.66
2018-08-30T00:59:57.919Z,99917.00
2018-08-30T01:02:26.935Z,99922.41
2018-08-30T01:04:56.020Z,99927.07
2018-08-30T01:07:25.049Z,99932.37
2018-08-30T01:09:54.515Z,99943.69
2018-08-30T01:12:23.567Z,99943.55
2018-08-30T01:14:52.563Z,99942.11
2018-08-30T01:17:21.562Z,99947.05
2018-08-30T01:19:50.592Z,99949.66
2018-08-30T01:22:19.595Z,99946.74
2018-08-30T01:24:48.877Z,99956.97
2018-08-30T01:27:17.897Z,99965.58
2018-08-30T01:29:46.911Z,99963.63
2018-08-30T01:32:15.944Z,99962.59
2018-08-30T01:34:44.943Z,99972.52
2018-08-30T01:37:13.979Z,99971.53
2018-08-30T01:39:42.999Z,99973.18
2018-08-30T01:42:12.040Z,99981.12
2018-08-30T01:44:41.042Z,99974.52
2018-08-30T01:47:10.340Z,99975.50
2018-08-30T01:49:39.506Z,99975.34
2018-08-30T01:52:08.615Z,99984.94
2018-08-30T01:54:37.732Z,99986.11
2018-08-30T01:57:06.755Z,99990.73
2018-08-30T01:59:35.784Z,99986.11
2018-08-30T02:02:04.807Z,99992.70
2018-08-30T02:04:33.969Z,99997.83
2018-08-30T02:07:03.260Z,99992.40
2018-08-30T02:09:32.293Z,99992.41
2018-08-30T02:12:01.326Z,100001.64
2018-08-30T02:14:30.364Z,100006.91
2018-08-30T02:16:59.438Z,100002.16
2018-08-30T02:19:28.459Z,100005.63
2018-08-30T02:21:57.491Z,100008.94
2018-08-30T02:24:26.527Z,100007.46
2018-08-30T02:26:55.552Z,100004.98
2018-08-30T02:29:24.619Z,100012.21
2018-08-30T02:31:53.718Z,100013.72
2018-08-30T02:34:22.706Z,100023.09
2018-08-30T02:36:51.738Z,100018.34
2018-08-30T02:39:20.854Z,100022.11
2018-08-30T02:41:50.066Z,100021.45
2018-08-30T02:44:19.139Z,100023.42
2018-08-30T02:46:48.236Z,100021.45
2018-08-30T02:49:17.311Z,100019.16
2018-08-30T02:51:46.324Z,100015.85
2018-08-30T02:54:15.388Z,100015.84
2018-08-30T02:56:44.463Z,100016.67
2018-08-30T02:59:13.491Z,100020.80
2018-08-30T03:01:42.547Z,100017.50
2018-08-30T03:04:11.591Z,100023.42
2018-08-30T03:06:40.755Z,100023.41
2018-08-30T03:09:10.199Z,100027.19
2018-08-30T03:11:39.266Z,100028.34
2018-08-30T03:14:08.315Z,100032.28
2018-08-30T03:16:37.344Z,100036.91
2018-08-30T03:19:06.499Z,100039.39
2018-08-30T03:21:35.549Z,100040.55
2018-08-30T03:24:04.609Z,100038.23
2018-08-30T03:26:33.655Z,100041.52
2018-08-30T03:29:02.675Z,100040.52
2018-08-30T03:31:31.819Z,100036.87
2018-08-30T03:34:00.880Z,100033.27
2018-08-30T03:36:29.884Z,100042.84
2018-08-30T03:38:58.926Z,100041.18
2018-08-30T03:41:27.963Z,100040.20
2018-08-30T03:43:57.027Z,100042.81
2018-08-30T03:46:26.068Z,100046.10
2018-08-30T03:48:55.250Z,100043.80
2018-08-30T03:51:24.298Z,100047.75
2018-08-30T03:53:53.319Z,100049.08
2018-08-30T03:56:22.347Z,100050.72
2018-08-30T03:58:51.413Z,100042.62
2018-08-30T04:01:20.466Z,100046.10
2018-08-30T04:03:49.508Z,100052.51
2018-08-30T04:06:18.530Z,100045.91
2018-08-30T04:08:47.599Z,100052.48
2018-08-30T04:11:16.627Z,100067.14
2018-08-30T04:13:45.688Z,100060.39
2018-08-30T04:16:14.724Z,100054.31
2018-08-30T04:18:43.774Z,100066.65
2018-08-30T04:21:12.842Z,100064.34
2018-08-30T04:23:41.887Z,100069.12
2018-08-30T04:26:10.926Z,100074.05
2018-08-30T04:28:39.949Z,100079.96
2018-08-30T04:31:09.040Z,100083.27
2018-08-30T04:33:38.007Z,100080.46
2018-08-30T04:36:07.060Z,100083.23
2018-08-30T04:38:36.075Z,100085.91
2018-08-30T04:41:05.280Z,100090.17
2018-08-30T04:43:34.432Z,100092.11
2018-08-30T04:46:04.332Z,100092.45
2018-08-30T04:48:33.379Z,100095.58
2018-08-30T04:51:02.395Z,100102.34
2018-08-30T04:53:31.440Z,100099.02
2018-08-30T04:56:00.968Z,100112.86
2018-08-30T04:58:30.147Z,100114.02
2018-08-30T05:00:59.740Z,100108.48
2018-08-30T05:03:28.987Z,100117.43
2018-08-30T05:05:58.099Z,100119.70
2018-08-30T05:08:27.434Z,100124.19
2018-08-30T05:10:56.864Z,100128.14
2018-08-30T05:13:25.911Z,100134.73
2018-08-30T05:15:54.943Z,100132.77
2018-08-30T05:18:23.954Z,100140.33
2018-08-30T05:20:53.006Z,100140.27
2018-08-30T05:23:22.009Z,100143.42
2018-08-30T05:25:51.043Z,100146.53
2018-08-30T05:28:20.076Z,100147.47
2018-08-30T05:30:49.134Z,100150.54
2018-08-30T05:33:18.155Z,100151.66
2018-08-30T05:35:47.301Z,100153.95
2018-08-30T05:38:16.304Z,100151.52
2018-08-30T05:40:45.353Z,100155.44
2018-08-30T05:43:14.415Z,100159.55
2018-08-30T05:45:43.435Z,100160.24
2018-08-30T05:48:12.447Z,100161.92
2018-08-30T05:50:41.496Z,100163.84
2018-08-30T05:53:10.523Z,100168.97
2018-08-30T05:55:39.559Z,100165.51
2018-08-30T05:58:08.595Z,100172.27
2018-08-30T06:00:37.646Z,100170.78
2018-08-30T06:03:06.853Z,100176.77
2018-08-30T06:05:35.887Z,100180.88
2018-08-30T06:08:05.026Z,100180.41
2018-08-30T06:10:34.027Z,100185.91
2018-08-30T06:13:03.091Z,100183.94
2018-08-30T06:15:32.100Z,100187.60
2018-08-30T06:18:01.116Z,100189.95
2018-08-30T06:20:30.162Z,100193.28
2018-08-30T06:22:59.490Z,100196.98
2018-08-30T06:25:28.563Z,100195.34
2018-08-30T06:27:57.594Z,100199.34
2018-08-30T06:30:26.615Z,100197.56
2018-08-30T06:32:55.714Z,100201.31
2018-08-30T06:35:24.687Z,100203.97
2018-08-30T06:37:53.740Z,100199.34
2018-08-30T06:40:22.787Z,100206.97
2018-08-30T06:42:51.866Z,100213.23
2018-08-30T06:45:21.146Z,100210.27
2018-08-30T06:47:50.160Z,100218.51
2018-08-30T06:50:19.360Z,100219.20
2018-08-30T06:52:48.398Z,100217.88
2018-08-30T06:55:17.730Z,100217.39
2018-08-30T06:57:46.774Z,100220.18
2018-08-30T07:00:15.814Z,100220.52
2018-08-30T07:02:44.887Z,100221.55
2018-08-30T07:05:13.920Z,100222.99
2018-08-30T07:07:43.051Z,100226.97
2018-08-30T07:10:12.072Z,100227.83
2018-08-30T07:12:41.091Z,100236.41
2018-08-30T07:15:10.174Z,100225.36
2018-08-30T07:17:39.203Z,100234.63
2018-08-30T07:20:08.254Z,100236.45
2018-08-30T07:22:37.268Z,100242.36
2018-08-30T07:25:06.572Z,100235.42
2018-08-30T07:27:35.661Z,100241.56
2018-08-30T07:30:06.163Z,100245.36
2018-08-30T07:32:35.215Z,100248.98
2018-08-30T07:35:04.276Z,100256.78
2018-08-30T07:37:33.303Z,100258.58
2018-08-30T07:40:02.339Z,100266.01
2018-08-30T07:42:31.406Z,100272.41
2018-08-30T07:45:00.607Z,100272.39
2018-08-30T07:47:29.627Z,100277.64
2018-08-30T07:49:58.692Z,100275.81
2018-08-30T07:52:27.716Z,100281.23
2018-08-30T07:54:56.747Z,100295.42
2018-08-30T07:57:25.838Z,100293.84
2018-08-30T07:59:54.910Z,100298.03
2018-08-30T08:02:23.903Z,100303.60
2018-08-30T08:04:52.919Z,100310.73
2018-08-30T08:07:22.074Z,100313.20
2018-08-30T08:09:51.011Z,100308.44
2018-08-30T08:12:20.059Z,100316.00
2018-08-30T08:14:49.134Z,100322.55
2018-08-30T08:17:18.166Z,100320.16
2018-08-30T08:19:47.181Z,100324.82
2018-08-30T08:22:16.252Z,100329.02
2018-08-30T08:24:45.288Z,100333.96
2018-08-30T08:27:14.377Z,100329.95
2018-08-30T08:29:43.407Z,100337.20
2018-08-30T08:32:12.464Z,100333.89
2018-08-30T08:34:41.504Z,100342.14
2018-08-30T08:37:10.667Z,100340.70
2018-08-30T08:39:39.704Z,100341.09
2018-08-30T08:42:08.758Z,100344.21
2018-08-30T08:44:37.800Z,100348.69
2018-08-30T08:47:06.842Z,100351.75
2018-08-30T08:49:36.571Z,100352.13
2018-08-30T08:52:05.601Z,100356.35
2018-08-30T08:54:34.799Z,100360.84
2018-08-30T08:57:04.102Z,100357.65
2018-08-30T08:59:33.127Z,100359.28
2018-08-30T09:02:02.187Z,100361.58
2018-08-30T09:04:31.208Z,100363.27
2018-08-30T09:07:00.570Z,100362.09
2018-08-30T09:09:29.546Z,100365.85
2018-08-30T09:11:58.579Z,100367.45
2018-08-30T09:14:27.650Z,100370.15
2018-08-30T09:16:56.656Z,100380.64
2018-08-30T09:19:25.734Z,100380.86
2018-08-30T09:21:54.776Z,100374.61
2018-08-30T09:24:23.819Z,100379.33
2018-08-30T09:26:52.984Z,100379.82
2018-08-30T09:29:21.903Z,100382.41
2018-08-30T09:31:50.967Z,100384.09
2018-08-30T09:34:20.012Z,100383.80
2018-08-30T09:36:49.059Z,100384.33
2018-08-30T09:39:18.111Z,100375.73
2018-08-30T09:41:47.124Z,100379.75
2018-08-30T09:44:16.213Z,100376.52
2018-08-30T09:46:45.247Z,100371.79
2018-08-30T09:49:14.320Z,100375.31
2018-08-30T09:51:43.312Z,100369.74
2018-08-30T09:54:12.343Z,100370.60
2018-08-30T09:56:41.423Z,100372.45
2018-08-30T09:59:10.459Z,100372.81
2018-08-30T10:01:44.916Z,100374.77
2018-08-30T10:04:13.975Z,100375.75
2018-08-30T10:06:42.995Z,100375.41
2018-08-30T10:09:12.063Z,100374.09
2018-08-30T10:11:41.118Z,100368.16
2018-08-30T10:14:10.467Z,100367.70
2018-08-30T10:16:39.522Z,100360.56
2018-08-30T10:19:08.538Z,100373.78
2018-08-30T10:21:37.709Z,100365.66
2018-08-30T10:24:06.631Z,100363.39
2018-08-30T10:26:35.710Z,100369.00
2018-08-30T10:29:04.810Z,100368.97
2018-08-30T10:31:33.977Z,100361.36
2018-08-30T10:34:03.019Z,100367.78
2018-08-30T10:36:32.410Z,100364.49
2018-08-30T10:39:01.637Z,100360.80
2018-08-30T10:41:30.740Z,100360.67
2018-08-30T10:43:59.912Z,100358.55
2018-08-30T10:46:28.981Z,100358.94
2018-08-30T10:48:58.234Z,100353.94
2018-08-30T10:51:27.277Z,100355.63
2018-08-30T10:53:56.323Z,100356.25
2018-08-30T10:56:25.476Z,100351.40
2018-08-30T10:58:54.363Z,100350.60
2018-08-30T11:01:23.415Z,100349.52
2018-08-30T11:03:52.513Z,100344.55
2018-08-30T11:06:21.539Z,100337.28
2018-08-30T11:08:50.792Z,100340.92
2018-08-30T11:11:19.902Z,100342.69
2018-08-30T11:13:49.210Z,100346.52
2018-08-30T11:16:24.778Z,100349.98
2018-08-30T11:18:54.071Z,100348.17
2018-08-30T11:21:23.083Z,100352.59
2018-08-30T11:23:52.101Z,100343.37
2018-08-30T11:26:21.143Z,100346.77
2018-08-30T11:28:50.156Z,100346.04
2018-08-30T11:31:19.212Z,100346.73
2018-08-30T11:33:48.243Z,100347.13
2018-08-30T11:36:17.298Z,100340.38
2018-08-30T11:38:46.332Z,100342.48
2018-08-30T11:41:15.589Z,100335.16
2018-08-30T11:43:44.612Z,100337.17
2018-08-30T11:46:13.623Z,100337.56
2018-08-30T11:48:42.671Z,100331.31
2018-08-30T11:51:11.725Z,100328.80
2018-08-30T11:53:40.795Z,100331.58
2018-08-30T11:56:10.156Z,100335.56
2018-08-30T11:58:39.166Z,100325.66
2018-08-30T12:01:08.231Z,100327.44
2018-08-30T12:03:37.243Z,100330.53
2018-08-30T12:06:06.292Z,100332.81
2018-08-30T12:08:35.311Z,100341.45
2018-08-30T12:11:04.507Z,100344.21
2018-08-30T12:13:33.367Z,100342.75
2018-08-30T12:16:02.408Z,100342.30
2018-08-30T12:18:31.420Z,100345.86
2018-08-30T12:21:00.507Z,100342.13
2018-08-30T12:23:29.626Z,100342.84
2018-08-30T12:25:58.827Z,100339.66
2018-08-30T12:28:28.242Z,100339.36
2018-08-30T12:30:57.630Z,100335.75
2018-08-30T12:33:26.663Z,100333.72
2018-08-30T12:35:55.867Z,100335.16
2018-08-30T12:38:24.693Z,100330.61
2018-08-30T12:40:53.723Z,100328.34
2018-08-30T12:43:22.880Z,100330.48
2018-08-30T12:45:51.866Z,100323.44
2018-08-30T12:48:20.885Z,100327.16
2018-08-30T12:50:50.003Z,100328.04
2018-08-30T12:53:19.055Z,100324.09
2018-08-30T12:55:48.120Z,100330.02
2018-08-30T12:58:17.356Z,100321.30
2018-08-30T13:00:46.288Z,100329.11
2018-08-30T13:03:15.400Z,100324.89
2018-08-30T13:05:44.971Z,100328.05
2018-08-30T13:08:13.717Z,100326.89
2018-08-30T13:10:42.989Z,100327.31
2018-08-30T13:13:12.302Z,100324.84
2018-08-30T13:15:41.265Z,100327.87
2018-08-30T13:18:10.168Z,100330.20
2018-08-30T13:20:39.432Z,100324.72
2018-08-30T13:23:08.334Z,100325.22
2018-08-30T13:25:37.563Z,100324.05
2018-08-30T13:28:06.487Z,100327.12
2018-08-30T13:30:35.386Z,100319.56
2018-08-30T13:33:04.653Z,100317.50
2018-08-30T13:35:33.930Z,100327.30
2018-08-30T13:38:03.367Z,100330.84
2018-08-30T13:40:32.172Z,100322.34
2018-08-30T13:43:01.425Z,100322.95
2018-08-30T13:45:30.347Z,100322.59
2018-08-30T13:47:59.700Z,100324.35
2018-08-30T13:50:31.549Z,100323.44
2018-08-30T13:53:00.598Z,100330.56
2018-08-30T13:55:29.630Z,100328.84
2018-08-30T13:57:58.729Z,100332.97
2018-08-30T14:00:27.987Z,100324.81
2018-08-30T14:02:56.687Z,100331.18
2018-08-30T14:05:25.756Z,100333.95
2018-08-30T14:07:54.780Z,100330.61
2018-08-30T14:10:24.148Z,100327.11
2018-08-30T14:12:52.891Z,100328.63
2018-08-30T14:15:22.254Z,100324.81
2018-08-30T14:17:50.850Z,100318.87
2018-08-30T14:20:19.785Z,100323.94
2018-08-30T14:22:49.193Z,100321.23
2018-08-30T14:25:18.223Z,100330.16
2018-08-30T14:27:47.272Z,100326.18
2018-08-30T14:30:16.311Z,100328.63
2018-08-30T14:32:45.391Z,100323.48
2018-08-30T14:35:14.596Z,100321.81
2018-08-30T14:37:43.662Z,100323.89
2018-08-30T14:40:12.682Z,100327.58
2018-08-30T14:42:41.759Z,100323.27
2018-08-30T14:45:10.784Z,100328.62
2018-08-30T14:47:39.949Z,100322.80
2018-08-30T14:50:08.866Z,100323.66
2018-08-30T14:52:37.922Z,100322.23
2018-08-30T14:55:07.303Z,100316.27
2018-08-30T14:57:36.584Z,100325.68
2018-08-30T15:00:05.647Z,100324.14
2018-08-30T15:02:34.594Z,100321.81
2018-08-30T15:05:03.726Z,100321.70
2018-08-30T15:07:32.685Z,100318.53
2018-08-30T15:10:02.058Z,100314.52
2018-08-30T15:12:31.203Z,100324.19
2018-08-30T15:15:00.103Z,100327.46
2018-08-30T15:17:29.245Z,100318.13
2018-08-30T15:19:58.176Z,100323.59
2018-08-30T15:22:27.228Z,100326.93
2018-08-30T15:24:56.279Z,100319.52
2018-08-30T15:27:25.329Z,100317.72
2018-08-30T15:29:54.331Z,100325.31
2018-08-30T15:32:23.422Z,100322.27
2018-08-30T15:34:52.647Z,100324.16
2018-08-30T15:37:21.669Z,100320.27
2018-08-30T15:39:50.682Z,100318.74
2018-08-30T15:42:19.790Z,100323.05
2018-08-30T15:44:48.978Z,100323.74
2018-08-30T15:47:18.098Z,100325.13
2018-08-30T15:49:47.079Z,100322.41
2018-08-30T15:52:16.158Z,100325.31
2018-08-30T15:54:45.175Z,100327.41
2018-08-30T15:57:14.267Z,100326.45
2018-08-30T15:59:43.336Z,100322.36
2018-08-30T16:02:12.371Z,100329.48
2018-08-30T16:04:41.396Z,100323.96
2018-08-30T16:07:10.435Z,100325.56
2018-08-30T16:09:39.456Z,100323.17
2018-08-30T16:12:08.522Z,100324.14
2018-08-30T16:14:37.556Z,100324.36
2018-08-30T16:17:06.624Z,100321.08
2018-08-30T16:19:35.615Z,100320.11
2018-08-30T16:22:04.635Z,100319.44
2018-08-30T16:24:33.680Z,100320.50
2018-08-30T16:27:02.784Z,100320.74
2018-08-30T16:29:31.810Z,100325.21
2018-08-30T16:32:00.971Z,100322.16
2018-08-30T16:34:30.033Z,100322.80
2018-08-30T16:36:59.024Z,100326.48
2018-08-30T16:39:28.170Z,100329.13
2018-08-30T16:41:57.255Z,100328.00
2018-08-30T16:44:26.336Z,100329.17
2018-08-30T16:46:55.346Z,100325.22
2018-08-30T16:49:24.344Z,100323.59
2018-08-30T16:51:53.387Z,100322.28
2018-08-30T16:54:22.411Z,100323.60
2018-08-30T16:56:52.731Z,100323.30
2018-08-30T16:59:21.773Z,100325.30
2018-08-30T17:01:50.776Z,100327.98
2018-08-30T17:04:19.832Z,100322.97
2018-08-30T17:06:48.855Z,100327.98
2018-08-30T17:09:18.000Z,100330.31
2018-08-30T17:11:47.019Z,100334.14
2018-08-30T17:14:16.040Z,100330.57
2018-08-30T17:16:45.089Z,100330.57
2018-08-30T17:19:20.780Z,100331.09
2018-08-30T17:21:49.824Z,100336.09
2018-08-30T17:24:18.827Z,100335.29
2018-08-30T17:26:48.149Z,100330.50
2018-08-30T17:29:17.190Z,100331.33
2018-08-30T17:31:46.325Z,100335.82
2018-08-30T17:34:15.373Z,100328.84
2018-08-30T17:36:44.387Z,100330.20
2018-08-30T17:39:13.417Z,100329.88
2018-08-30T17:41:46.789Z,100330.86
2018-08-30T17:44:15.887Z,100326.89
2018-08-30T17:46:44.901Z,100318.98
2018-08-30T17:49:13.911Z,100330.54
2018-08-30T17:51:42.987Z,100326.91
2018-08-30T17:54:12.015Z,100330.87
2018-08-30T17:56:41.087Z,100333.97
2018-08-30T17:59:10.395Z,100335.72
2018-08-30T18:01:39.484Z,100337.67
2018-08-30T18:04:08.540Z,100342.25
2018-08-30T18:06:44.201Z,100338.75
2018-08-30T18:09:13.219Z,100347.41
2018-08-30T18:11:42.308Z,100349.71
2018-08-30T18:14:11.325Z,100348.34
2018-08-30T18:16:40.391Z,100345.70
2018-08-30T18:19:09.431Z,100344.12
2018-08-30T18:21:38.458Z,100347.39
2018-08-30T18:24:07.534Z,100352.80
2018-08-30T18:26:36.515Z,100350.62
2018-08-30T18:29:05.555Z,100359.05
2018-08-30T18:31:34.585Z,100359.36
2018-08-30T18:34:03.608Z,100356.52
2018-08-30T18:36:32.662Z,100362.79
2018-08-30T18:39:01.702Z,100359.64
2018-08-30T18:41:30.735Z,100357.45
2018-08-30T18:43:59.768Z,100361.36
2018-08-30T18:46:28.907Z,100363.79
2018-08-30T18:48:57.931Z,100370.41
2018-08-30T18:51:27.041Z,100370.98
2018-08-30T18:53:56.112Z,100369.63
2018-08-30T18:56:25.132Z,100374.50
2018-08-30T18:58:54.235Z,100370.52
2018-08-30T19:01:23.504Z,100371.95
2018-08-30T19:03:52.743Z,100381.34
2018-08-30T19:06:21.784Z,100377.78
2018-08-30T19:08:50.993Z,100382.87
2018-08-30T19:11:20.039Z,100380.84
2018-08-30T19:13:49.088Z,100385.71
2018-08-30T19:16:23.837Z,100380.72
2018-08-30T19:18:58.239Z,100380.97
2018-08-30T19:21:27.587Z,100383.28
2018-08-30T19:23:57.423Z,100388.55
2018-08-30T19:26:26.498Z,100391.47
2018-08-30T19:28:55.543Z,100397.30
2018-08-30T19:31:24.927Z,100403.16
2018-08-30T19:33:53.999Z,100407.11
2018-08-30T19:36:28.395Z,100404.16
2018-08-30T19:38:57.680Z,100409.55
2018-08-30T19:41:26.707Z,100409.55
2018-08-30T19:43:55.743Z,100414.22
2018-08-30T19:46:24.964Z,100417.49
2018-08-30T19:48:53.983Z,100419.23
2018-08-30T19:51:23.110Z,100422.16
2018-08-30T19:53:52.163Z,100425.44
2018-08-30T19:56:21.253Z,100423.09
2018-08-30T19:58:50.267Z,100421.08
2018-08-30T20:01:19.302Z,100414.85
2018-08-30T20:03:48.352Z,100419.77
2018-08-30T20:06:17.375Z,100422.55
2018-08-30T20:08:46.395Z,100421.18
2018-08-30T20:11:15.583Z,100423.98
2018-08-30T20:13:44.695Z,100432.16
2018-08-30T20:16:13.739Z,100433.70
2018-08-30T20:18:43.269Z,100437.06
2018-08-30T20:21:12.352Z,100434.49
2018-08-30T20:23:41.375Z,100433.47
2018-08-30T20:26:10.390Z,100433.43
2018-08-30T20:28:39.481Z,100430.03
2018-08-30T20:31:08.479Z,100430.23
2018-08-30T20:33:37.495Z,100428.21
2018-08-30T20:36:06.539Z,100431.09
2018-08-30T20:38:35.565Z,100424.47
2018-08-30T20:41:04.894Z,100418.91
2018-08-30T20:43:34.008Z,100417.53
2018-08-30T20:46:03.360Z,100427.70
2018-08-30T20:48:32.434Z,100419.08
2018-08-30T20:51:01.427Z,100419.84
2018-08-30T20:53:30.471Z,100416.73
2018-08-30T20:55:59.460Z,100423.89
2018-08-30T20:58:28.590Z,100426.73
2018-08-30T21:00:57.595Z,100431.32
2018-08-30T21:03:26.731Z,100435.66
2018-08-30T21:05:55.803Z,100428.18
2018-08-30T21:08:24.834Z,100422.28
2018-08-30T21:10:53.871Z,100430.17
2018-08-30T21:13:22.883Z,100420.13
2018-08-30T21:15:51.899Z,100416.73
2018-08-30T21:18:21.034Z,100421.51
2018-08-30T21:20:50.102Z,100419.42
2018-08-30T21:23:19.095Z,100423.18
2018-08-30T21:25:48.127Z,100417.22
2018-08-30T21:28:17.146Z,100413.08
2018-08-30T21:30:46.195Z,100417.67
2018-08-30T21:33:15.198Z,100415.52
2018-08-30T21:35:44.234Z,100412.54
2018-08-30T21:38:13.251Z,100413.85
2018-08-30T21:40:42.304Z,100412.67
2018-08-30T21:43:11.323Z,100413.50
2018-08-30T21:45:40.358Z,100412.67
2018-08-30T21:48:09.762Z,100421.55
2018-08-30T21:50:38.776Z,100427.77
2018-08-30T21:53:07.868Z,100426.80
2018-08-30T21:55:36.889Z,100436.61
2018-08-30T21:58:05.910Z,100430.33
2018-08-30T22:00:34.983Z,100433.70
2018-08-30T22:03:04.091Z,100427.13
2018-08-30T22:05:33.211Z,100423.24
2018-08-30T22:08:02.219Z,100423.89
2018-08-30T22:10:31.292Z,100417.92
2018-08-30T22:13:00.323Z,100422.86
2018-08-30T22:15:29.459Z,100417.44
2018-08-30T22:17:58.511Z,100420.91
2018-08-30T22:20:27.530Z,100423.19
2018-08-30T22:22:56.627Z,100424.11
2018-08-30T22:25:25.676Z,100425.08
2018-08-30T22:27:54.698Z,100426.67
2018-08-30T22:30:23.754Z,100424.20
2018-08-30T22:32:52.788Z,100420.68
2018-08-30T22:35:21.796Z,100428.50
2018-08-30T22:37:50.811Z,100430.83
2018-08-30T22:40:19.866Z,100428.97
2018-08-30T22:42:48.882Z,100431.27
2018-08-30T22:45:17.947Z,100425.93
2018-08-30T22:47:46.966Z,100427.37
2018-08-30T22:50:16.033Z,100421.72
2018-08-30T22:52:45.120Z,100421.17
2018-08-30T22:55:14.146Z,100423.67
2018-08-30T22:57:43.189Z,100414.77
2018-08-30T23:00:12.207Z,100421.33
2018-08-30T23:02:41.229Z,100415.66
2018-08-30T23:05:10.247Z,100418.50
2018-08-30T23:07:39.387Z,100421.56
2018-08-30T23:10:08.435Z,100416.04
2018-08-30T23:12:37.508Z,100409.52
2018-08-30T23:15:06.529Z,100410.08
2018-08-30T23:17:35.572Z,100405.27
2018-08-30T23:20:04.765Z,100410.44
2018-08-30T23:22:33.784Z,100417.48
2018-08-30T23:25:02.841Z,100414.23
2018-08-30T23:27:31.961Z,100404.48
2018-08-30T23:30:01.420Z,100408.11
2018-08-30T23:32:36.983Z,100412.09
2018-08-30T23:35:06.195Z,100411.05
2018-08-30T23:37:35.203Z,100408.50
2018-08-30T23:40:04.785Z,100405.05
2018-08-30T23:42:33.810Z,100404.97
2018-08-30T23:45:02.855Z,100408.81
2018-08-30T23:47:32.320Z,100403.93
2018-08-30T23:50:01.328Z,100398.95
2018-08-30T23:52:30.339Z,100398.28
2018-08-30T23:54:59.363Z,100387.98
2018-08-30T23:57:28.371Z,100396.36
